sensor_id;sensor_type;location;lat;lon;timestamp;pressure;altitude;pressure_sealevel;temperature;humidity
29879;BME280;16752;53.364;-1.488;2024-01-25T00:39:16;101574.63;;;13.21;44.41
29879;BME280;16752;53.364;-1.488;2024-01-25T00:45:40;101559.34;;;13.11;44.75
29879;BME280;16752;53.364;-1.488;2024-01-25T00:51:31;101559.50;;;12.30;47.42
29879;BME280;16752;53.364;-1.488;2024-01-25T00:54:34;101553.78;;;12.70;46.81
29879;BME280;16752;53.364;-1.488;2024-01-25T00:57:20;101541.50;;;13.32;45.36
29879;BME280;16752;53.364;-1.488;2024-01-25T01:00:07;101546.66;;;13.34;45.01
29879;BME280;16752;53.364;-1.488;2024-01-25T01:03:00;101553.75;;;13.48;44.92
29879;BME280;16752;53.364;-1.488;2024-01-25T01:05:46;101548.94;;;13.40;44.97
29879;BME280;16752;53.364;-1.488;2024-01-25T01:08:30;101531.00;;;13.47;44.61
29879;BME280;16752;53.364;-1.488;2024-01-25T01:11:14;101525.66;;;13.18;44.98
29879;BME280;16752;53.364;-1.488;2024-01-25T01:13:58;101507.84;;;13.23;45.16
29879;BME280;16752;53.364;-1.488;2024-01-25T01:16:42;101507.00;;;11.29;49.32
29879;BME280;16752;53.364;-1.488;2024-01-25T01:19:26;101516.78;;;12.73;46.35
29879;BME280;16752;53.364;-1.488;2024-01-25T01:22:10;101528.13;;;13.05;45.36
29879;BME280;16752;53.364;-1.488;2024-01-25T01:24:56;101535.44;;;12.84;46.02
29879;BME280;16752;53.364;-1.488;2024-01-25T01:27:40;101549.88;;;12.46;46.90
29879;BME280;16752;53.364;-1.488;2024-01-25T01:30:24;101531.59;;;13.06;45.30
29879;BME280;16752;53.364;-1.488;2024-01-25T01:33:11;101517.06;;;13.14;45.34
29879;BME280;16752;53.364;-1.488;2024-01-25T01:35:55;101516.34;;;13.57;44.31
29879;BME280;16752;53.364;-1.488;2024-01-25T01:38:40;101504.31;;;13.23;44.93
29879;BME280;16752;53.364;-1.488;2024-01-25T01:41:24;101495.53;;;13.38;44.73
29879;BME280;16752;53.364;-1.488;2024-01-25T01:44:08;101489.47;;;12.76;46.12
29879;BME280;16752;53.364;-1.488;2024-01-25T01:46:52;101483.03;;;13.27;45.13
29879;BME280;16752;53.364;-1.488;2024-01-25T01:49:38;101485.94;;;13.07;45.33
29879;BME280;16752;53.364;-1.488;2024-01-25T01:52:25;101496.84;;;13.15;45.48
29879;BME280;16752;53.364;-1.488;2024-01-25T01:55:09;101499.03;;;13.53;44.76
29879;BME280;16752;53.364;-1.488;2024-01-25T01:57:55;101511.09;;;13.85;44.20
29879;BME280;16752;53.364;-1.488;2024-01-25T02:00:39;101504.69;;;13.01;45.17
29879;BME280;16752;53.364;-1.488;2024-01-25T02:03:27;101497.44;;;13.50;44.25
29879;BME280;16752;53.364;-1.488;2024-01-25T02:06:11;101442.88;;;13.38;43.99
29879;BME280;16752;53.364;-1.488;2024-01-25T02:08:55;101465.56;;;13.55;44.20
29879;BME280;16752;53.364;-1.488;2024-01-25T02:11:42;101462.59;;;12.71;45.71
29879;BME280;16752;53.364;-1.488;2024-01-25T02:14:25;101447.34;;;13.52;44.17
29879;BME280;16752;53.364;-1.488;2024-01-25T02:17:10;101446.38;;;13.24;44.41
29879;BME280;16752;53.364;-1.488;2024-01-25T02:19:53;101454.72;;;13.01;45.43
29879;BME280;16752;53.364;-1.488;2024-01-25T02:22:37;101472.16;;;13.62;44.73
29879;BME280;16752;53.364;-1.488;2024-01-25T02:25:21;101472.53;;;13.56;44.77
29879;BME280;16752;53.364;-1.488;2024-01-25T02:28:05;101475.19;;;12.96;45.75
29879;BME280;16752;53.364;-1.488;2024-01-25T02:30:49;101480.16;;;13.74;44.25
29879;BME280;16752;53.364;-1.488;2024-01-25T02:33:36;101485.06;;;13.66;44.30
29879;BME280;16752;53.364;-1.488;2024-01-25T02:36:21;101481.56;;;13.66;44.36
29879;BME280;16752;53.364;-1.488;2024-01-25T02:39:05;101465.75;;;13.80;43.99
29879;BME280;16752;53.364;-1.488;2024-01-25T02:41:49;101471.41;;;13.60;44.29
29879;BME280;16752;53.364;-1.488;2024-01-25T02:44:33;101469.78;;;13.43;44.56
29879;BME280;16752;53.364;-1.488;2024-01-25T02:47:17;101477.78;;;13.41;44.86
29879;BME280;16752;53.364;-1.488;2024-01-25T02:50:02;101460.22;;;13.70;44.32
29879;BME280;16752;53.364;-1.488;2024-01-25T02:52:46;101444.13;;;13.75;44.33
29879;BME280;16752;53.364;-1.488;2024-01-25T02:55:30;101447.72;;;13.60;44.62
29879;BME280;16752;53.364;-1.488;2024-01-25T02:58:14;101441.31;;;13.78;43.95
29879;BME280;16752;53.364;-1.488;2024-01-25T03:00:58;101440.66;;;13.74;44.14
29879;BME280;16752;53.364;-1.488;2024-01-25T03:03:42;101433.16;;;13.68;44.47
29879;BME280;16752;53.364;-1.488;2024-01-25T03:06:26;101429.75;;;13.52;44.75
29879;BME280;16752;53.364;-1.488;2024-01-25T03:09:10;101408.13;;;13.75;44.11
29879;BME280;16752;53.364;-1.488;2024-01-25T03:11:54;101412.94;;;13.69;44.78
29879;BME280;16752;53.364;-1.488;2024-01-25T03:14:38;101398.44;;;13.76;44.42
29879;BME280;16752;53.364;-1.488;2024-01-25T03:17:22;101402.59;;;13.52;44.65
29879;BME280;16752;53.364;-1.488;2024-01-25T03:20:06;101407.81;;;13.66;44.57
29879;BME280;16752;53.364;-1.488;2024-01-25T03:22:50;101397.69;;;13.60;44.73
29879;BME280;16752;53.364;-1.488;2024-01-25T03:25:34;101405.47;;;13.61;44.74
29879;BME280;16752;53.364;-1.488;2024-01-25T03:28:18;101394.84;;;13.63;44.63
29879;BME280;16752;53.364;-1.488;2024-01-25T03:31:02;101388.53;;;13.65;44.75
29879;BME280;16752;53.364;-1.488;2024-01-25T03:33:46;101380.00;;;13.76;44.50
29879;BME280;16752;53.364;-1.488;2024-01-25T03:36:30;101388.16;;;13.86;44.25
29879;BME280;16752;53.364;-1.488;2024-01-25T03:39:14;101383.13;;;13.54;45.20
29879;BME280;16752;53.364;-1.488;2024-01-25T03:41:58;101394.38;;;13.42;45.99
29879;BME280;16752;53.364;-1.488;2024-01-25T03:44:42;101400.53;;;13.12;46.48
29879;BME280;16752;53.364;-1.488;2024-01-25T03:47:28;101400.22;;;13.33;46.26
29879;BME280;16752;53.364;-1.488;2024-01-25T03:50:12;101394.31;;;13.29;46.30
29879;BME280;16752;53.364;-1.488;2024-01-25T03:52:56;101396.66;;;13.34;46.23
29879;BME280;16752;53.364;-1.488;2024-01-25T03:55:40;101383.13;;;12.36;48.68
29879;BME280;16752;53.364;-1.488;2024-01-25T03:58:24;101389.69;;;12.89;47.37
29879;BME280;16752;53.364;-1.488;2024-01-25T04:01:08;101373.41;;;12.68;48.28
29879;BME280;16752;53.364;-1.488;2024-01-25T04:03:53;101361.41;;;13.36;46.50
29879;BME280;16752;53.364;-1.488;2024-01-25T04:06:40;101360.75;;;13.47;46.08
29879;BME280;16752;53.364;-1.488;2024-01-25T04:09:25;101354.56;;;12.90;46.90
29879;BME280;16752;53.364;-1.488;2024-01-25T04:12:09;101351.22;;;13.59;45.68
29879;BME280;16752;53.364;-1.488;2024-01-25T04:14:53;101356.47;;;13.16;46.80
29879;BME280;16752;53.364;-1.488;2024-01-25T04:17:37;101359.41;;;13.68;45.56
29879;BME280;16752;53.364;-1.488;2024-01-25T04:20:21;101354.09;;;13.83;45.32
29879;BME280;16752;53.364;-1.488;2024-01-25T04:23:05;101354.53;;;14.03;44.76
29879;BME280;16752;53.364;-1.488;2024-01-25T04:25:49;101355.47;;;12.74;47.26
29879;BME280;16752;53.364;-1.488;2024-01-25T04:28:33;101340.72;;;13.44;46.01
29879;BME280;16752;53.364;-1.488;2024-01-25T04:31:17;101329.94;;;12.16;48.58
29879;BME280;16752;53.364;-1.488;2024-01-25T04:34:01;101318.69;;;13.17;46.69
29879;BME280;16752;53.364;-1.488;2024-01-25T04:36:45;101308.38;;;13.57;45.80
29879;BME280;16752;53.364;-1.488;2024-01-25T04:39:29;101304.88;;;13.56;45.79
29879;BME280;16752;53.364;-1.488;2024-01-25T04:42:13;101303.44;;;13.65;45.44
29879;BME280;16752;53.364;-1.488;2024-01-25T04:44:57;101299.63;;;13.42;46.00
29879;BME280;16752;53.364;-1.488;2024-01-25T04:47:41;101297.69;;;13.45;46.13
29879;BME280;16752;53.364;-1.488;2024-01-25T04:50:24;101298.44;;;13.48;45.91
29879;BME280;16752;53.364;-1.488;2024-01-25T04:53:08;101296.38;;;13.24;46.33
29879;BME280;16752;53.364;-1.488;2024-01-25T04:55:55;101293.72;;;13.80;45.29
29879;BME280;16752;53.364;-1.488;2024-01-25T04:58:40;101299.84;;;13.80;45.26
29879;BME280;16752;53.364;-1.488;2024-01-25T05:01:24;101291.19;;;14.05;45.10
29879;BME280;16752;53.364;-1.488;2024-01-25T05:04:08;101294.88;;;14.02;44.81
29879;BME280;16752;53.364;-1.488;2024-01-25T05:06:52;101293.34;;;14.13;44.62
29879;BME280;16752;53.364;-1.488;2024-01-25T05:09:36;101281.69;;;13.90;45.11
29879;BME280;16752;53.364;-1.488;2024-01-25T05:12:20;101284.84;;;13.68;45.33
29879;BME280;16752;53.364;-1.488;2024-01-25T05:15:04;101283.94;;;13.55;46.16
29879;BME280;16752;53.364;-1.488;2024-01-25T05:17:48;101280.09;;;13.46;45.88
29879;BME280;16752;53.364;-1.488;2024-01-25T05:20:32;101276.78;;;14.11;44.86
29879;BME280;16752;53.364;-1.488;2024-01-25T05:23:17;101277.31;;;13.62;45.55
29879;BME280;16752;53.364;-1.488;2024-01-25T05:26:01;101278.06;;;13.64;45.93
29879;BME280;16752;53.364;-1.488;2024-01-25T05:28:46;101265.72;;;13.37;46.33
29879;BME280;16752;53.364;-1.488;2024-01-25T05:31:30;101265.88;;;12.77;48.07
29879;BME280;16752;53.364;-1.488;2024-01-25T05:34:13;101257.06;;;13.21;46.62
29879;BME280;16752;53.364;-1.488;2024-01-25T05:36:57;101256.34;;;13.60;45.98
29879;BME280;16752;53.364;-1.488;2024-01-25T05:39:41;101255.84;;;12.98;47.42
29879;BME280;16752;53.364;-1.488;2024-01-25T05:42:25;101251.03;;;13.48;46.40
29879;BME280;16752;53.364;-1.488;2024-01-25T05:45:09;101239.97;;;13.14;46.91
29879;BME280;16752;53.364;-1.488;2024-01-25T05:47:53;101243.06;;;13.49;46.59
29879;BME280;16752;53.364;-1.488;2024-01-25T05:50:37;101244.28;;;13.97;45.39
29879;BME280;16752;53.364;-1.488;2024-01-25T05:53:21;101230.41;;;14.21;45.04
29879;BME280;16752;53.364;-1.488;2024-01-25T05:56:06;101226.84;;;14.22;45.08
29879;BME280;16752;53.364;-1.488;2024-01-25T05:58:50;101230.59;;;14.05;45.41
29879;BME280;16752;53.364;-1.488;2024-01-25T06:01:33;101232.63;;;14.27;45.22
29879;BME280;16752;53.364;-1.488;2024-01-25T06:04:17;101228.56;;;14.35;45.20
29879;BME280;16752;53.364;-1.488;2024-01-25T06:07:03;101236.75;;;14.31;45.27
29879;BME280;16752;53.364;-1.488;2024-01-25T06:09:48;101234.22;;;14.17;45.39
29879;BME280;16752;53.364;-1.488;2024-01-25T06:12:32;101207.34;;;14.12;45.32
29879;BME280;16752;53.364;-1.488;2024-01-25T06:15:16;101223.03;;;14.13;45.85
29879;BME280;16752;53.364;-1.488;2024-01-25T06:18:00;101227.91;;;14.19;45.61
29879;BME280;16752;53.364;-1.488;2024-01-25T06:20:43;101223.88;;;14.26;45.46
29879;BME280;16752;53.364;-1.488;2024-01-25T06:23:27;101227.56;;;14.11;45.83
29879;BME280;16752;53.364;-1.488;2024-01-25T06:26:11;101214.41;;;13.84;46.39
29879;BME280;16752;53.364;-1.488;2024-01-25T06:28:56;101203.28;;;12.11;50.63
29879;BME280;16752;53.364;-1.488;2024-01-25T06:31:43;101200.19;;;11.89;51.75
29879;BME280;16752;53.364;-1.488;2024-01-25T06:34:28;101205.97;;;12.54;50.00
29879;BME280;16752;53.364;-1.488;2024-01-25T06:37:12;101189.22;;;13.67;47.12
29879;BME280;16752;53.364;-1.488;2024-01-25T06:39:59;101189.66;;;13.74;46.88
29879;BME280;16752;53.364;-1.488;2024-01-25T06:42:43;101184.31;;;13.88;46.28
29879;BME280;16752;53.364;-1.488;2024-01-25T06:45:28;101166.84;;;13.33;47.89
29879;BME280;16752;53.364;-1.488;2024-01-25T06:48:12;101177.19;;;13.22;48.28
29879;BME280;16752;53.364;-1.488;2024-01-25T06:50:56;101169.38;;;13.62;47.58
29879;BME280;16752;53.364;-1.488;2024-01-25T06:53:40;101162.22;;;13.64;47.49
29879;BME280;16752;53.364;-1.488;2024-01-25T06:56:24;101163.56;;;13.96;46.75
29879;BME280;16752;53.364;-1.488;2024-01-25T06:59:08;101166.41;;;13.54;48.03
29879;BME280;16752;53.364;-1.488;2024-01-25T07:01:52;101162.53;;;13.59;48.32
29879;BME280;16752;53.364;-1.488;2024-01-25T07:04:36;101155.66;;;12.74;50.04
29879;BME280;16752;53.364;-1.488;2024-01-25T07:07:21;101147.56;;;12.06;52.39
29879;BME280;16752;53.364;-1.488;2024-01-25T07:10:06;101143.38;;;12.61;51.03
29879;BME280;16752;53.364;-1.488;2024-01-25T07:12:50;101136.69;;;12.83;51.06
29879;BME280;16752;53.364;-1.488;2024-01-25T07:15:34;101143.03;;;13.08;50.18
29879;BME280;16752;53.364;-1.488;2024-01-25T07:18:21;101143.75;;;13.51;49.50
29879;BME280;16752;53.364;-1.488;2024-01-25T07:21:06;101136.25;;;13.72;49.14
29879;BME280;16752;53.364;-1.488;2024-01-25T07:23:53;101145.81;;;13.73;49.29
29879;BME280;16752;53.364;-1.488;2024-01-25T07:26:37;101139.81;;;13.44;50.35
29879;BME280;16752;53.364;-1.488;2024-01-25T07:29:21;101135.19;;;13.87;49.45
29879;BME280;16752;53.364;-1.488;2024-01-25T07:32:08;101135.09;;;13.22;51.42
29879;BME280;16752;53.364;-1.488;2024-01-25T07:34:59;101128.97;;;13.75;50.49
29879;BME280;16752;53.364;-1.488;2024-01-25T08:34:33;101065.78;;;13.88;51.16
29879;BME280;16752;53.364;-1.488;2024-01-25T08:37:19;101064.84;;;14.15;50.79
29879;BME280;16752;53.364;-1.488;2024-01-25T08:40:14;101064.56;;;14.92;48.90
29879;BME280;16752;53.364;-1.488;2024-01-25T08:43:06;101069.72;;;14.70;49.46
29879;BME280;16752;53.364;-1.488;2024-01-25T08:45:51;101066.00;;;14.73;49.42
29879;BME280;16752;53.364;-1.488;2024-01-25T08:48:42;101065.97;;;15.09;48.95
29879;BME280;16752;53.364;-1.488;2024-01-25T08:51:26;101069.13;;;14.90;49.48
29879;BME280;16752;53.364;-1.488;2024-01-25T08:54:10;101056.63;;;14.68;50.15
29879;BME280;16752;53.364;-1.488;2024-01-25T08:56:59;101056.47;;;14.59;50.38
29879;BME280;16752;53.364;-1.488;2024-01-25T08:59:43;101051.78;;;14.75;50.03
29879;BME280;16752;53.364;-1.488;2024-01-25T09:02:27;101043.06;;;14.86;49.92
29879;BME280;16752;53.364;-1.488;2024-01-25T09:05:13;101029.28;;;15.06;49.49
29879;BME280;16752;53.364;-1.488;2024-01-25T09:07:56;101028.88;;;15.35;48.57
29879;BME280;16752;53.364;-1.488;2024-01-25T09:10:41;101032.25;;;15.37;48.93
29879;BME280;16752;53.364;-1.488;2024-01-25T09:13:25;101017.38;;;14.77;50.71
29879;BME280;16752;53.364;-1.488;2024-01-25T09:16:09;101021.38;;;14.46;51.25
29879;BME280;16752;53.364;-1.488;2024-01-25T09:18:53;101018.88;;;15.16;50.02
29879;BME280;16752;53.364;-1.488;2024-01-25T09:21:38;101017.06;;;14.45;52.17
29879;BME280;16752;53.364;-1.488;2024-01-25T09:24:22;101008.22;;;14.33;52.20
29879;BME280;16752;53.364;-1.488;2024-01-25T09:27:06;101001.44;;;14.54;52.08
29879;BME280;16752;53.364;-1.488;2024-01-25T09:29:50;100994.25;;;15.04;51.54
29879;BME280;16752;53.364;-1.488;2024-01-25T09:32:34;100991.75;;;14.29;52.96
29879;BME280;16752;53.364;-1.488;2024-01-25T09:35:18;100993.22;;;14.46;53.36
29879;BME280;16752;53.364;-1.488;2024-01-25T09:38:02;100997.25;;;14.76;52.26
29879;BME280;16752;53.364;-1.488;2024-01-25T09:40:45;100998.72;;;14.43;53.52
29879;BME280;16752;53.364;-1.488;2024-01-25T09:43:30;101000.25;;;13.96;55.70
29879;BME280;16752;53.364;-1.488;2024-01-25T09:46:14;100995.75;;;14.72;53.55
29879;BME280;16752;53.364;-1.488;2024-01-25T09:48:59;100990.53;;;15.07;52.35
29879;BME280;16752;53.364;-1.488;2024-01-25T09:51:43;101001.09;;;14.59;54.13
29879;BME280;16752;53.364;-1.488;2024-01-25T09:54:27;101003.13;;;14.30;55.06
29879;BME280;16752;53.364;-1.488;2024-01-25T09:57:15;100999.63;;;13.80;56.32
29879;BME280;16752;53.364;-1.488;2024-01-25T10:00:03;100997.00;;;14.79;54.05
29879;BME280;16752;53.364;-1.488;2024-01-25T10:02:48;100999.97;;;14.74;53.84
29879;BME280;16752;53.364;-1.488;2024-01-25T10:05:32;101002.56;;;14.87;53.73
29879;BME280;16752;53.364;-1.488;2024-01-25T10:08:17;100991.28;;;14.61;53.67
29879;BME280;16752;53.364;-1.488;2024-01-25T10:11:02;100988.53;;;14.62;54.32
29879;BME280;16752;53.364;-1.488;2024-01-25T10:13:47;100985.28;;;14.83;53.54
29879;BME280;16752;53.364;-1.488;2024-01-25T10:16:34;100971.63;;;14.89;53.52
29879;BME280;16752;53.364;-1.488;2024-01-25T10:19:18;100977.84;;;14.88;53.95
29879;BME280;16752;53.364;-1.488;2024-01-25T10:22:05;100971.25;;;15.17;53.11
29879;BME280;16752;53.364;-1.488;2024-01-25T10:24:50;100981.69;;;14.11;55.49
29879;BME280;16752;53.364;-1.488;2024-01-25T10:27:38;100983.66;;;15.39;52.87
29879;BME280;16752;53.364;-1.488;2024-01-25T10:30:22;100989.38;;;14.87;54.13
29879;BME280;16752;53.364;-1.488;2024-01-25T10:33:07;100988.97;;;14.80;54.36
29879;BME280;16752;53.364;-1.488;2024-01-25T10:35:58;100992.97;;;14.62;55.16
29879;BME280;16752;53.364;-1.488;2024-01-25T10:38:46;100975.59;;;15.18;53.36
29879;BME280;16752;53.364;-1.488;2024-01-25T10:41:31;100979.56;;;16.04;51.18
29879;BME280;16752;53.364;-1.488;2024-01-25T10:44:16;100976.25;;;15.09;53.91
29879;BME280;16752;53.364;-1.488;2024-01-25T10:47:01;100971.28;;;14.70;54.84
29879;BME280;16752;53.364;-1.488;2024-01-25T10:49:46;100972.53;;;15.01;54.50
29879;BME280;16752;53.364;-1.488;2024-01-25T10:52:30;100969.34;;;16.10;51.29
29879;BME280;16752;53.364;-1.488;2024-01-25T10:55:15;100957.22;;;15.97;51.82
29879;BME280;16752;53.364;-1.488;2024-01-25T10:58:00;100955.41;;;15.75;52.32
29879;BME280;16752;53.364;-1.488;2024-01-25T11:00:50;100940.06;;;15.69;52.28
29879;BME280;16752;53.364;-1.488;2024-01-25T11:03:35;100938.94;;;15.60;52.89
29879;BME280;16752;53.364;-1.488;2024-01-25T11:06:20;100936.66;;;15.44;53.47
29879;BME280;16752;53.364;-1.488;2024-01-25T11:09:04;100935.34;;;16.17;51.60
29879;BME280;16752;53.364;-1.488;2024-01-25T11:11:55;100940.28;;;15.77;52.96
29879;BME280;16752;53.364;-1.488;2024-01-25T11:14:39;100932.19;;;16.23;51.58
29879;BME280;16752;53.364;-1.488;2024-01-25T11:17:22;100929.69;;;15.43;54.30
29879;BME280;16752;53.364;-1.488;2024-01-25T11:20:12;100934.19;;;15.65;53.76
29879;BME280;16752;53.364;-1.488;2024-01-25T11:25:47;100934.03;;;16.00;52.82
29879;BME280;16752;53.364;-1.488;2024-01-25T11:28:30;100917.59;;;16.08;52.66
29879;BME280;16752;53.364;-1.488;2024-01-25T11:31:22;100914.47;;;16.46;51.11
29879;BME280;16752;53.364;-1.488;2024-01-25T11:34:09;100900.78;;;15.75;53.70
29879;BME280;16752;53.364;-1.488;2024-01-25T11:36:54;100897.00;;;15.22;54.62
29879;BME280;16752;53.364;-1.488;2024-01-25T11:39:38;100898.41;;;15.83;53.06
29879;BME280;16752;53.364;-1.488;2024-01-25T11:42:22;100893.47;;;16.76;50.94
29879;BME280;16752;53.364;-1.488;2024-01-25T11:45:07;100878.50;;;16.55;51.46
29879;BME280;16752;53.364;-1.488;2024-01-25T11:47:52;100868.03;;;16.85;50.70
29879;BME280;16752;53.364;-1.488;2024-01-25T11:50:36;100870.50;;;16.77;51.11
29879;BME280;16752;53.364;-1.488;2024-01-25T11:53:24;100858.69;;;16.17;52.86
29879;BME280;16752;53.364;-1.488;2024-01-25T11:56:09;100857.97;;;16.04;53.24
29879;BME280;16752;53.364;-1.488;2024-01-25T11:58:54;100861.69;;;16.56;51.77
29879;BME280;16752;53.364;-1.488;2024-01-25T12:01:40;100854.22;;;16.82;51.17
29879;BME280;16752;53.364;-1.488;2024-01-25T12:04:24;100848.28;;;15.82;53.25
29879;BME280;16752;53.364;-1.488;2024-01-25T12:07:08;100837.59;;;16.59;52.02
29879;BME280;16752;53.364;-1.488;2024-01-25T12:09:59;100835.81;;;17.22;50.08
29879;BME280;16752;53.364;-1.488;2024-01-25T12:12:43;100829.69;;;17.21;50.38
29879;BME280;16752;53.364;-1.488;2024-01-25T12:15:27;100834.16;;;16.47;52.11
29879;BME280;16752;53.364;-1.488;2024-01-25T12:18:11;100832.50;;;16.78;51.74
29879;BME280;16752;53.364;-1.488;2024-01-25T12:20:54;100821.50;;;17.03;51.47
29879;BME280;16752;53.364;-1.488;2024-01-25T12:23:39;100825.56;;;16.87;51.14
29879;BME280;16752;53.364;-1.488;2024-01-25T12:26:23;100827.06;;;17.61;49.48
29879;BME280;16752;53.364;-1.488;2024-01-25T12:29:07;100809.06;;;16.94;50.98
29879;BME280;16752;53.364;-1.488;2024-01-25T12:31:54;100816.38;;;17.73;49.45
29879;BME280;16752;53.364;-1.488;2024-01-25T12:34:38;100809.06;;;18.24;48.15
29879;BME280;16752;53.364;-1.488;2024-01-25T12:37:25;100804.81;;;17.13;50.86
29879;BME280;16752;53.364;-1.488;2024-01-25T12:40:08;100810.09;;;17.74;49.43
29879;BME280;16752;53.364;-1.488;2024-01-25T12:42:52;100796.19;;;17.51;50.11
29879;BME280;16752;53.364;-1.488;2024-01-25T12:45:36;100795.38;;;18.29;48.23
29879;BME280;16752;53.364;-1.488;2024-01-25T12:48:20;100786.44;;;18.49;47.92
29879;BME280;16752;53.364;-1.488;2024-01-25T12:51:04;100782.09;;;18.00;48.89
29879;BME280;16752;53.364;-1.488;2024-01-25T12:53:48;100788.66;;;17.86;49.41
29879;BME280;16752;53.364;-1.488;2024-01-25T12:56:32;100785.09;;;17.66;50.28
29879;BME280;16752;53.364;-1.488;2024-01-25T12:59:16;100781.69;;;18.24;48.71
29879;BME280;16752;53.364;-1.488;2024-01-25T13:02:00;100776.66;;;18.30;48.56
29879;BME280;16752;53.364;-1.488;2024-01-25T13:04:44;100786.16;;;18.04;49.20
29879;BME280;16752;53.364;-1.488;2024-01-25T13:07:28;100774.50;;;18.82;47.49
29879;BME280;16752;53.364;-1.488;2024-01-25T13:10:15;100774.81;;;17.73;50.18
29879;BME280;16752;53.364;-1.488;2024-01-25T13:12:59;100779.06;;;19.09;47.11
29879;BME280;16752;53.364;-1.488;2024-01-25T13:15:43;100776.56;;;18.98;47.25
29879;BME280;16752;53.364;-1.488;2024-01-25T13:18:27;100766.63;;;18.44;48.85
29879;BME280;16752;53.364;-1.488;2024-01-25T13:21:13;100758.91;;;18.41;48.72
29879;BME280;16752;53.364;-1.488;2024-01-25T13:23:59;100761.84;;;18.67;47.74
29879;BME280;16752;53.364;-1.488;2024-01-25T13:26:43;100741.56;;;18.75;47.87
29879;BME280;16752;53.364;-1.488;2024-01-25T13:29:27;100747.28;;;18.80;48.12
29879;BME280;16752;53.364;-1.488;2024-01-25T13:32:11;100727.41;;;18.84;48.01
29879;BME280;16752;53.364;-1.488;2024-01-25T13:34:55;100739.38;;;18.32;49.20
29879;BME280;16752;53.364;-1.488;2024-01-25T13:37:39;100738.38;;;19.36;46.66
29879;BME280;16752;53.364;-1.488;2024-01-25T13:40:26;100731.78;;;19.13;47.33
29879;BME280;16752;53.364;-1.488;2024-01-25T13:43:10;100729.88;;;18.49;49.11
29879;BME280;16752;53.364;-1.488;2024-01-25T13:45:55;100730.00;;;18.67;48.60
29879;BME280;16752;53.364;-1.488;2024-01-25T13:48:42;100710.31;;;18.69;48.82
29879;BME280;16752;53.364;-1.488;2024-01-25T13:51:26;100714.47;;;19.64;46.14
29879;BME280;16752;53.364;-1.488;2024-01-25T13:54:13;100716.25;;;18.90;48.11
29879;BME280;16752;53.364;-1.488;2024-01-25T13:56:57;100699.78;;;18.77;48.28
29879;BME280;16752;53.364;-1.488;2024-01-25T13:59:41;100697.50;;;18.92;48.43
29879;BME280;16752;53.364;-1.488;2024-01-25T14:02:24;100689.56;;;19.65;46.41
29879;BME280;16752;53.364;-1.488;2024-01-25T14:05:08;100687.19;;;19.62;46.58
29879;BME280;16752;53.364;-1.488;2024-01-25T14:07:52;100683.41;;;18.45;49.33
29879;BME280;16752;53.364;-1.488;2024-01-25T14:10:36;100678.94;;;19.37;47.21
29879;BME280;16752;53.364;-1.488;2024-01-25T14:13:20;100677.66;;;18.86;48.51
29879;BME280;16752;53.364;-1.488;2024-01-25T14:16:04;100675.13;;;18.95;48.49
29879;BME280;16752;53.364;-1.488;2024-01-25T14:18:48;100666.81;;;19.52;46.90
29879;BME280;16752;53.364;-1.488;2024-01-25T14:21:32;100667.31;;;19.66;46.37
29879;BME280;16752;53.364;-1.488;2024-01-25T14:24:16;100662.97;;;19.19;47.93
29879;BME280;16752;53.364;-1.488;2024-01-25T14:26:59;100659.06;;;18.69;49.15
29879;BME280;16752;53.364;-1.488;2024-01-25T14:29:43;100655.94;;;19.01;48.42
29879;BME280;16752;53.364;-1.488;2024-01-25T14:32:27;100641.28;;;18.22;50.00
29879;BME280;16752;53.364;-1.488;2024-01-25T14:35:11;100641.50;;;19.13;47.94
29879;BME280;16752;53.364;-1.488;2024-01-25T14:37:55;100642.63;;;18.83;48.73
29879;BME280;16752;53.364;-1.488;2024-01-25T14:40:39;100632.50;;;18.59;49.43
29879;BME280;16752;53.364;-1.488;2024-01-25T14:43:23;100632.00;;;19.56;47.20
29879;BME280;16752;53.364;-1.488;2024-01-25T14:46:07;100637.84;;;19.14;47.90
29879;BME280;16752;53.364;-1.488;2024-01-25T14:48:51;100619.13;;;19.15;48.23
29879;BME280;16752;53.364;-1.488;2024-01-25T14:51:35;100612.00;;;19.34;47.81
29879;BME280;16752;53.364;-1.488;2024-01-25T14:54:19;100606.66;;;19.87;46.48
29879;BME280;16752;53.364;-1.488;2024-01-25T14:57:03;100615.09;;;19.29;48.15
29879;BME280;16752;53.364;-1.488;2024-01-25T14:59:47;100608.75;;;19.75;47.13
29879;BME280;16752;53.364;-1.488;2024-01-25T15:02:31;100607.91;;;18.20;50.71
29879;BME280;16752;53.364;-1.488;2024-01-25T15:05:14;100614.94;;;19.13;48.60
29879;BME280;16752;53.364;-1.488;2024-01-25T15:07:58;100606.41;;;18.54;49.96
29879;BME280;16752;53.364;-1.488;2024-01-25T15:10:42;100605.72;;;19.35;48.05
29879;BME280;16752;53.364;-1.488;2024-01-25T15:13:26;100597.56;;;19.18;48.59
29879;BME280;16752;53.364;-1.488;2024-01-25T15:16:10;100587.59;;;18.48;50.15
29879;BME280;16752;53.364;-1.488;2024-01-25T15:18:54;100586.81;;;19.38;47.90
29879;BME280;16752;53.364;-1.488;2024-01-25T15:21:38;100578.72;;;18.29;50.81
29879;BME280;16752;53.364;-1.488;2024-01-25T15:24:22;100583.06;;;19.13;48.58
29879;BME280;16752;53.364;-1.488;2024-01-25T15:27:06;100578.50;;;18.87;49.60
29879;BME280;16752;53.364;-1.488;2024-01-25T15:29:50;100562.97;;;19.10;48.57
29879;BME280;16752;53.364;-1.488;2024-01-25T15:32:34;100568.94;;;19.30;48.46
29879;BME280;16752;53.364;-1.488;2024-01-25T15:35:19;100558.25;;;19.22;48.66
29879;BME280;16752;53.364;-1.488;2024-01-25T15:38:02;100559.31;;;18.93;49.60
29879;BME280;16752;53.364;-1.488;2024-01-25T15:40:48;100569.41;;;18.53;50.14
29879;BME280;16752;53.364;-1.488;2024-01-25T15:43:34;100546.50;;;19.60;47.58
29879;BME280;16752;53.364;-1.488;2024-01-25T15:46:18;100555.38;;;19.15;48.53
29879;BME280;16752;53.364;-1.488;2024-01-25T15:49:02;100545.63;;;19.77;47.17
29879;BME280;16752;53.364;-1.488;2024-01-25T15:51:47;100553.59;;;19.06;49.30
29879;BME280;16752;53.364;-1.488;2024-01-25T15:54:31;100546.63;;;19.41;48.05